Ana Sayfa
METAR-TAF:

METAR-TAF

Havaalanları :

Mıkolayiv, Ukrayna

Enlem: 47-03-29N, Boylam: 031-55-15E, yükseklik: 56 m

Güncel hava durumu gözlemi

Rapor saat 14:00 UTC de 5 saat ve 6 dakika önce yapıldı.
Rüzgar değişken yönden 2 kt
Sıcaklık 22°C
Nem 60%
Basınç 1018 hPa
Görüş mesafesi 10 km veya daha fazla
1500 m altında bulut yok ve kümülonimbus yok

METAR: UKON 181400Z VRB01MPS CAVOK 22/14 Q1018 R04/090075 NOSIG

Saat: 22:06 (19:06 UTC)

Tahmin

Rapor saat 11:05 UTC de 8 saat ve 1 dakika önce yapıldı.
Ayın 18'si saat 12 UTC'den ayın 18'si saat 21 UTC'ye kadar geçerli Tahmin
Rüzgar doğudan 6 kt
Görüş mesafesi: 6000 m
1000 ft yükseklikte parçalı bulutlu

TAF: UKON 181105Z 1812/1821 10003MPS 6000 SCT010

4.000'den fazla havaalanı için hava durumu gözlemleri ve tahminleri (METAR ve TAF raporları).

Kullanılabilir istasyonlar harita üzerinde sarı ve kırmızı noktalarla gösterilir.

İstasyonun adını görmek için fareyi noktanın üzerinde gezdirin.

Sonrasında hava gözlem ve tahminlerini görmek için tıklayın.

Haritayı değiştirmek için: yaklaştırmak için siyah artı işaretli yeşil düğmeye ve uzaklaştırmak için de eksi işaretli düğmeye hızla tıklayın; bitişik haritalar için yeşil okları kullanın.


METAR-TAF: